메인 페이지
METAR-TAF:

METAR-TAF

공항 :

샌프란시스코 국제공항

샌프란시스코, 캘리포니아, 미국

위도: 37-37-11N, 경도: 122-21-53W, 고도: 3m

현재 날씨관측

예보는 15분 전, 13:56시(UTC)에 발표되었습니다.
무풍
온도 13°C
습도 88%
기압 1016 hPa
시정: 16.1km
고도 3800ft 상공 구름 많음
고도 5500ft 상공 구름 많음

METAR: KSFO 061356Z 00000KT 10SM BKN038 BKN055 13/11 A3001 RMK AO2 SLP162 T01280106 $

시각: 06:11 (14:11 UTC)

예보

예보는 14분 전, 13:57시(UTC)에 발표되었습니다.
예보 대상 시간: 06일 14시부터 07일 18시까지 (UTC)
동남동5kt
시정: 10km
고도 3500ft 상공 구름 많음
고도 5000ft 상공 구름 많음
06일 1700시부터 (UTC)
남동10kt, 순간 최대 풍속 16kt
시정: 10km
고도 3000ft 상공 구름 많음
고도 5000ft 상공 흐림
06일 1900시부터 (UTC)
남동14kt, 순간 최대 풍속 21kt
시정: 9.7km
고도 3000ft 상공 구름 많음
고도 3500ft 상공 흐림
박무
06일 2200시부터 (UTC)
남남동16kt, 순간 최대 풍속 27kt
시정: 9.7km
고도 2500ft 상공 흐림
박무, 시계 내 소나기
07일 0200시부터 (UTC)
남남동20kt, 순간 최대 풍속 32kt
시정: 8.0km
고도 2200ft 상공 흐림
약한비, 박무
07일 1200시부터 (UTC)
남남동18kt, 순간 최대 풍속 28kt
시정: 9.7km
고도 2500ft 상공 구름 많음
약한소나기, 박무

TAF: KSFO 061357Z 0614/0718 12005KT P6SM BKN035 BKN050 WS020/16030KT FM061700 13010G16KT P6SM BKN030 OVC050 WS020/16035KT FM061900 14014G21KT 6SM BR BKN030 OVC035 WS020/16040KT FM062200 15016G27KT 6SM BR VCSH OVC025 WS020/16040KT FM070200 16020G32KT 5SM -RA BR OVC022 WS020/16050KT FM071200 16018G28KT 6SM -SHRA BR BKN025

4,000개 이상의 공항 관측 자료 및 예보 (METAR 및 TAF 보고).

지도상에서 검색 가능한 기상관측소가 노란 점과 빨간 점으로 표시되어 있습니다.

기상관측소 명을 보려면 표시 위로 마우스를 이동하세요.

날씨 관측과 예보를 보려면 클릭하세요.

지도 변경 : 확대하려면 엑스 표시가 있는 녹색 버튼, 축소하려면 빼기 표시가 있는 녹색 버튼, 다음 페이지의 지도를 보려면 녹색 화살표를 클릭하세요.


METAR-TAF: